ALK104 VRMM-VCBI
Flight info
| Callsign | ALK104 |
|---|---|
| Flight time | 1h 9m |
| Altitude | 39000 |
| Route | HOKEY1A HOKEY M512 TELIG LALUM1A |
| Aircraft | A20N/M-SDE2E3FGHIRWXY/LB1 |
Departure
| Time | 2026-04-23 10:53 |
|---|---|
| Airport | Velana International Airport (VRMM) |
Arrival
| Time | 2026-04-23 12:02 |
|---|---|
| Airport | Bandaranaike International Colombo Airport (VCBI) |
| Time | Latitude | Longitude | Altitude | Speed | Heading |
|---|---|---|---|---|---|
| 2026-04-23 10:39 | 4.18872 | 73.52795 | 15 ft | 0 kts | 269° |
| 2026-04-23 10:44 | 4.18872 | 73.52810 | 17 ft | 3 kts | 269° |
| 2026-04-23 10:44 | 4.18873 | 73.52829 | 19 ft | 3 kts | 252° |
| 2026-04-23 10:45 | 4.18883 | 73.52845 | 16 ft | 3 kts | 211° |
| 2026-04-23 10:45 | 4.18898 | 73.52850 | 17 ft | 0 kts | 176° |
| 2026-04-23 10:48 | 4.18894 | 73.52850 | 18 ft | 3 kts | 176° |
| 2026-04-23 10:48 | 4.18846 | 73.52852 | 16 ft | 11 kts | 180° |
| 2026-04-23 10:48 | 4.18760 | 73.52852 | 15 ft | 17 kts | 181° |
| 2026-04-23 10:49 | 4.18631 | 73.52855 | 15 ft | 19 kts | 178° |
| 2026-04-23 10:49 | 4.18526 | 73.52856 | 15 ft | 14 kts | 175° |
| 2026-04-23 10:49 | 4.18469 | 73.52914 | 15 ft | 10 kts | 139° |
| 2026-04-23 10:49 | 4.18402 | 73.52927 | 15 ft | 10 kts | 179° |
| 2026-04-23 10:50 | 4.18396 | 73.52927 | 15 ft | 0 kts | 179° |
| 2026-04-23 10:51 | 4.18363 | 73.52929 | 16 ft | 8 kts | 178° |
| 2026-04-23 10:51 | 4.18285 | 73.52930 | 16 ft | 14 kts | 178° |
| 2026-04-23 10:51 | 4.18200 | 73.52970 | 16 ft | 14 kts | 107° |
| 2026-04-23 10:52 | 4.18200 | 73.53068 | 16 ft | 14 kts | 76° |
| 2026-04-23 10:52 | 4.18318 | 73.53102 | 16 ft | 38 kts | 359° |
| 2026-04-23 10:52 | 4.18814 | 73.53103 | 16 ft | 103 kts | 0° |
| 2026-04-23 10:52 | 4.19722 | 73.53102 | 16 ft | 156 kts | 359° |
| 2026-04-23 10:53 | 4.20879 | 73.53119 | 327 ft | 168 kts | 356° |
| 2026-04-23 10:53 | 4.22038 | 73.53099 | 920 ft | 168 kts | 356° |
| 2026-04-23 10:53 | 4.23207 | 73.53075 | 1527 ft | 167 kts | 357° |
| 2026-04-23 10:53 | 4.24413 | 73.53082 | 1979 ft | 192 kts | 359° |
| 2026-04-23 10:54 | 4.25880 | 73.53088 | 2253 ft | 228 kts | 359° |
| 2026-04-23 10:54 | 4.27563 | 73.53083 | 2689 ft | 252 kts | 359° |
| 2026-04-23 10:54 | 4.29355 | 73.53078 | 3394 ft | 262 kts | 359° |
| 2026-04-23 10:54 | 4.31195 | 73.53074 | 4195 ft | 266 kts | 360° |
| 2026-04-23 10:55 | 4.33061 | 73.53072 | 5006 ft | 270 kts | 0° |
| 2026-04-23 10:55 | 4.34949 | 73.53070 | 5820 ft | 273 kts | 0° |
| 2026-04-23 10:55 | 4.36858 | 73.53069 | 6598 ft | 276 kts | 0° |
| 2026-04-23 10:55 | 4.38782 | 73.53216 | 7334 ft | 279 kts | 13° |
| 2026-04-23 10:56 | 4.40540 | 73.54009 | 8088 ft | 280 kts | 38° |
| 2026-04-23 10:56 | 4.41782 | 73.55504 | 8855 ft | 283 kts | 64° |
| 2026-04-23 10:56 | 4.42257 | 73.57413 | 9639 ft | 286 kts | 84° |
| 2026-04-23 10:56 | 4.42310 | 73.59421 | 10278 ft | 293 kts | 89° |
| 2026-04-23 10:57 | 4.42286 | 73.61528 | 10586 ft | 312 kts | 90° |
| 2026-04-23 10:57 | 4.42258 | 73.63755 | 10950 ft | 326 kts | 89° |
| 2026-04-23 10:57 | 4.42240 | 73.66054 | 11493 ft | 333 kts | 89° |
| 2026-04-23 10:57 | 4.42230 | 73.68394 | 12090 ft | 338 kts | 89° |
| 2026-04-23 10:58 | 4.42224 | 73.70763 | 12699 ft | 342 kts | 89° |
| 2026-04-23 10:58 | 4.42221 | 73.73164 | 13322 ft | 347 kts | 89° |
| 2026-04-23 10:58 | 4.42255 | 73.75593 | 13907 ft | 350 kts | 85° |
| 2026-04-23 10:58 | 4.42585 | 73.78017 | 14489 ft | 353 kts | 78° |
| 2026-04-23 10:59 | 4.43102 | 73.80430 | 15085 ft | 356 kts | 76° |
| 2026-04-23 10:59 | 4.43660 | 73.82857 | 15690 ft | 359 kts | 76° |
| 2026-04-23 10:59 | 4.44226 | 73.85303 | 16294 ft | 362 kts | 75° |
| 2026-04-23 10:59 | 4.44793 | 73.87770 | 16884 ft | 365 kts | 75° |
| 2026-04-23 11:00 | 4.45441 | 73.90238 | 17464 ft | 367 kts | 70° |
| 2026-04-23 11:00 | 4.46268 | 73.92673 | 18020 ft | 371 kts | 69° |
| 2026-04-23 11:00 | 4.47129 | 73.95119 | 18479 ft | 374 kts | 69° |
| 2026-04-23 11:00 | 4.48013 | 73.97584 | 18919 ft | 377 kts | 69° |
| 2026-04-23 11:01 | 4.48911 | 74.00067 | 19360 ft | 381 kts | 69° |
| 2026-04-23 11:01 | 4.49820 | 74.02569 | 19812 ft | 383 kts | 69° |
| 2026-04-23 11:01 | 4.50737 | 74.05087 | 20266 ft | 386 kts | 69° |
| 2026-04-23 11:01 | 4.51661 | 74.07622 | 20703 ft | 389 kts | 69° |
| 2026-04-23 11:02 | 4.52595 | 74.10183 | 21136 ft | 393 kts | 70° |
| 2026-04-23 11:02 | 4.53536 | 74.12764 | 21571 ft | 396 kts | 70° |
| 2026-04-23 11:02 | 4.54486 | 74.15369 | 22009 ft | 400 kts | 70° |
| 2026-04-23 11:02 | 4.55443 | 74.17995 | 22455 ft | 403 kts | 70° |
| 2026-04-23 11:03 | 4.56411 | 74.20647 | 22900 ft | 406 kts | 70° |
| 2026-04-23 11:03 | 4.57385 | 74.23318 | 23346 ft | 410 kts | 70° |
| 2026-04-23 11:03 | 4.58365 | 74.26008 | 23732 ft | 413 kts | 70° |
| 2026-04-23 11:03 | 4.59355 | 74.28722 | 24122 ft | 415 kts | 71° |
| 2026-04-23 11:04 | 4.60348 | 74.31446 | 24520 ft | 418 kts | 71° |
| 2026-04-23 11:04 | 4.61348 | 74.34189 | 24915 ft | 420 kts | 71° |
| 2026-04-23 11:04 | 4.62354 | 74.36948 | 25302 ft | 423 kts | 71° |
| 2026-04-23 11:04 | 4.63365 | 74.39721 | 25689 ft | 425 kts | 71° |
| 2026-04-23 11:05 | 4.64382 | 74.42514 | 26066 ft | 427 kts | 71° |
| 2026-04-23 11:05 | 4.65404 | 74.45319 | 26431 ft | 430 kts | 71° |
| 2026-04-23 11:05 | 4.66430 | 74.48138 | 26796 ft | 432 kts | 71° |
| 2026-04-23 11:05 | 4.67463 | 74.50976 | 27143 ft | 434 kts | 72° |
| 2026-04-23 11:06 | 4.69545 | 74.56695 | 27834 ft | 439 kts | 72° |
| 2026-04-23 11:06 | 4.70594 | 74.59578 | 28159 ft | 441 kts | 72° |
| 2026-04-23 11:06 | 4.71648 | 74.62473 | 28505 ft | 443 kts | 72° |
| 2026-04-23 11:07 | 4.72705 | 74.65377 | 28836 ft | 445 kts | 72° |
| 2026-04-23 11:07 | 4.73770 | 74.68306 | 29159 ft | 447 kts | 72° |
| 2026-04-23 11:07 | 4.74837 | 74.71239 | 29471 ft | 450 kts | 72° |
| 2026-04-23 11:07 | 4.75911 | 74.74192 | 29778 ft | 452 kts | 72° |
| 2026-04-23 11:08 | 4.76989 | 74.77157 | 30048 ft | 454 kts | 72° |
| 2026-04-23 11:08 | 4.78059 | 74.80098 | 30282 ft | 456 kts | 72° |
| 2026-04-23 11:08 | 4.79148 | 74.83094 | 30520 ft | 459 kts | 73° |
| 2026-04-23 11:08 | 4.80242 | 74.86104 | 30760 ft | 461 kts | 73° |
| 2026-04-23 11:09 | 4.81343 | 74.89134 | 30998 ft | 463 kts | 73° |
| 2026-04-23 11:09 | 4.82449 | 74.92176 | 31227 ft | 465 kts | 73° |
| 2026-04-23 11:09 | 4.83558 | 74.95227 | 31507 ft | 466 kts | 73° |
| 2026-04-23 11:09 | 4.84682 | 74.98321 | 31847 ft | 466 kts | 73° |
| 2026-04-23 11:10 | 4.85790 | 75.01369 | 32163 ft | 465 kts | 73° |
| 2026-04-23 11:10 | 4.86897 | 75.04419 | 32472 ft | 465 kts | 73° |
| 2026-04-23 11:10 | 4.88004 | 75.07470 | 32769 ft | 466 kts | 73° |
| 2026-04-23 11:10 | 4.89111 | 75.10520 | 33073 ft | 466 kts | 73° |
| 2026-04-23 11:11 | 4.90218 | 75.13569 | 33355 ft | 466 kts | 74° |
| 2026-04-23 11:11 | 4.91327 | 75.16626 | 33638 ft | 466 kts | 74° |
| 2026-04-23 11:11 | 4.92420 | 75.19640 | 33906 ft | 466 kts | 74° |
| 2026-04-23 11:11 | 4.93528 | 75.22691 | 34149 ft | 466 kts | 74° |
| 2026-04-23 11:12 | 4.94636 | 75.25749 | 34381 ft | 466 kts | 74° |
| 2026-04-23 11:12 | 4.95744 | 75.28803 | 34617 ft | 467 kts | 74° |
| 2026-04-23 11:12 | 4.96854 | 75.31863 | 34844 ft | 467 kts | 74° |
| 2026-04-23 11:12 | 4.97963 | 75.34925 | 35077 ft | 467 kts | 74° |
| 2026-04-23 11:13 | 4.99073 | 75.37985 | 35305 ft | 467 kts | 74° |
| 2026-04-23 11:13 | 5.00182 | 75.41044 | 35518 ft | 467 kts | 74° |
| 2026-04-23 11:13 | 5.01292 | 75.44110 | 35739 ft | 467 kts | 73° |
| 2026-04-23 11:13 | 5.02402 | 75.47172 | 35945 ft | 468 kts | 73° |
| 2026-04-23 11:14 | 5.03513 | 75.50239 | 36148 ft | 468 kts | 73° |
| 2026-04-23 11:14 | 5.04624 | 75.53307 | 36350 ft | 468 kts | 73° |
| 2026-04-23 11:14 | 5.05735 | 75.56376 | 36538 ft | 468 kts | 73° |
| 2026-04-23 11:14 | 5.06847 | 75.59447 | 36747 ft | 468 kts | 73° |
| 2026-04-23 11:15 | 5.07959 | 75.62519 | 36942 ft | 469 kts | 73° |
| 2026-04-23 11:15 | 5.09070 | 75.65589 | 37140 ft | 469 kts | 73° |
| 2026-04-23 11:15 | 5.10183 | 75.68662 | 37314 ft | 469 kts | 73° |
| 2026-04-23 11:15 | 5.11295 | 75.71738 | 37526 ft | 469 kts | 73° |
| 2026-04-23 11:16 | 5.12408 | 75.74813 | 37703 ft | 469 kts | 73° |
| 2026-04-23 11:16 | 5.13519 | 75.77885 | 37880 ft | 469 kts | 73° |
| 2026-04-23 11:16 | 5.14632 | 75.80964 | 38057 ft | 469 kts | 73° |
| 2026-04-23 11:16 | 5.15745 | 75.84040 | 38232 ft | 469 kts | 73° |
| 2026-04-23 11:17 | 5.16857 | 75.87117 | 38391 ft | 470 kts | 73° |
| 2026-04-23 11:17 | 5.17971 | 75.90200 | 38544 ft | 470 kts | 73° |
| 2026-04-23 11:17 | 5.19082 | 75.93273 | 38695 ft | 469 kts | 73° |
| 2026-04-23 11:18 | 5.21305 | 75.99425 | 38799 ft | 468 kts | 73° |
| 2026-04-23 11:18 | 5.23515 | 76.05542 | 38802 ft | 466 kts | 73° |
| 2026-04-23 11:19 | 5.25720 | 76.11648 | 38801 ft | 465 kts | 73° |
| 2026-04-23 11:19 | 5.27923 | 76.17752 | 38802 ft | 465 kts | 73° |
| 2026-04-23 11:20 | 5.30110 | 76.23814 | 38807 ft | 465 kts | 73° |
| 2026-04-23 11:20 | 5.32310 | 76.29911 | 38805 ft | 465 kts | 73° |
| 2026-04-23 11:21 | 5.34510 | 76.36013 | 38801 ft | 465 kts | 73° |
| 2026-04-23 11:21 | 5.36708 | 76.42109 | 38801 ft | 464 kts | 73° |
| 2026-04-23 11:22 | 5.38902 | 76.48200 | 38801 ft | 464 kts | 73° |
| 2026-04-23 11:22 | 5.41095 | 76.54288 | 38806 ft | 464 kts | 73° |
| 2026-04-23 11:23 | 5.43286 | 76.60373 | 38805 ft | 463 kts | 73° |
| 2026-04-23 11:23 | 5.45473 | 76.66449 | 38804 ft | 463 kts | 73° |
| 2026-04-23 11:24 | 5.47661 | 76.72530 | 38801 ft | 463 kts | 73° |
| 2026-04-23 11:24 | 5.49846 | 76.78603 | 38801 ft | 463 kts | 73° |
| 2026-04-23 11:25 | 5.51661 | 76.83650 | 38801 ft | 462 kts | 73° |
| 2026-04-23 11:25 | 5.53843 | 76.89719 | 38801 ft | 462 kts | 73° |
| 2026-04-23 11:26 | 5.56024 | 76.95789 | 38800 ft | 462 kts | 73° |
| 2026-04-23 11:26 | 5.58204 | 77.01854 | 38801 ft | 462 kts | 73° |
| 2026-04-23 11:27 | 5.60383 | 77.07918 | 38801 ft | 462 kts | 73° |
| 2026-04-23 11:27 | 5.62560 | 77.13982 | 38800 ft | 462 kts | 73° |
| 2026-04-23 11:28 | 5.64736 | 77.20043 | 38801 ft | 461 kts | 73° |
| 2026-04-23 11:28 | 5.66911 | 77.26105 | 38804 ft | 461 kts | 73° |
| 2026-04-23 11:29 | 5.69076 | 77.32162 | 38804 ft | 461 kts | 73° |
| 2026-04-23 11:29 | 5.71241 | 77.38220 | 38799 ft | 461 kts | 73° |
| 2026-04-23 11:30 | 5.73408 | 77.44276 | 38803 ft | 461 kts | 73° |
| 2026-04-23 11:30 | 5.75578 | 77.50323 | 38799 ft | 461 kts | 73° |
| 2026-04-23 11:31 | 5.77752 | 77.56375 | 38800 ft | 460 kts | 73° |
| 2026-04-23 11:31 | 5.79919 | 77.62423 | 38801 ft | 460 kts | 73° |
| 2026-04-23 11:32 | 5.82084 | 77.68470 | 38801 ft | 460 kts | 73° |
| 2026-04-23 11:32 | 5.84247 | 77.74513 | 38803 ft | 460 kts | 73° |
| 2026-04-23 11:33 | 5.86407 | 77.80552 | 38805 ft | 459 kts | 73° |
| 2026-04-23 11:33 | 5.88564 | 77.86586 | 38805 ft | 459 kts | 73° |
| 2026-04-23 11:34 | 5.90719 | 77.92620 | 38804 ft | 459 kts | 73° |
| 2026-04-23 11:34 | 5.92874 | 77.98651 | 38805 ft | 458 kts | 73° |
| 2026-04-23 11:35 | 5.95024 | 78.04676 | 38806 ft | 458 kts | 73° |
| 2026-04-23 11:35 | 5.97173 | 78.10698 | 38803 ft | 458 kts | 73° |
| 2026-04-23 11:36 | 5.99317 | 78.16710 | 38804 ft | 457 kts | 73° |
| 2026-04-23 11:36 | 6.01463 | 78.22728 | 38803 ft | 457 kts | 73° |
| 2026-04-23 11:37 | 6.03603 | 78.28733 | 38801 ft | 457 kts | 73° |
| 2026-04-23 11:37 | 6.05744 | 78.34743 | 38801 ft | 457 kts | 73° |
| 2026-04-23 11:38 | 6.07889 | 78.40766 | 38804 ft | 458 kts | 73° |
| 2026-04-23 11:38 | 6.10036 | 78.46795 | 38804 ft | 458 kts | 73° |
| 2026-04-23 11:39 | 6.12195 | 78.52818 | 38668 ft | 459 kts | 71° |
| 2026-04-23 11:39 | 6.13571 | 78.55714 | 38439 ft | 461 kts | 61° |
| 2026-04-23 11:39 | 6.15442 | 78.58323 | 38029 ft | 461 kts | 49° |
| 2026-04-23 11:39 | 6.17780 | 78.60539 | 37440 ft | 464 kts | 41° |
| 2026-04-23 11:40 | 6.20318 | 78.62565 | 36761 ft | 468 kts | 39° |
| 2026-04-23 11:40 | 6.22911 | 78.64569 | 36079 ft | 471 kts | 39° |
| 2026-04-23 11:40 | 6.25516 | 78.66579 | 35357 ft | 474 kts | 39° |
| 2026-04-23 11:40 | 6.28140 | 78.68611 | 34588 ft | 479 kts | 40° |
| 2026-04-23 11:41 | 6.30787 | 78.70667 | 33813 ft | 483 kts | 40° |
| 2026-04-23 11:41 | 6.33406 | 78.72706 | 33194 ft | 482 kts | 40° |
| 2026-04-23 11:41 | 6.36045 | 78.74763 | 32633 ft | 478 kts | 40° |
| 2026-04-23 11:41 | 6.38667 | 78.76807 | 32062 ft | 476 kts | 40° |
| 2026-04-23 11:42 | 6.41193 | 78.78935 | 31433 ft | 472 kts | 47° |
| 2026-04-23 11:42 | 6.43369 | 78.81376 | 30922 ft | 466 kts | 52° |
| 2026-04-23 11:42 | 6.45413 | 78.83889 | 30356 ft | 463 kts | 53° |
| 2026-04-23 11:42 | 6.47428 | 78.86410 | 29773 ft | 462 kts | 53° |
| 2026-04-23 11:43 | 6.49432 | 78.88919 | 29130 ft | 459 kts | 53° |
| 2026-04-23 11:43 | 6.51421 | 78.91405 | 28716 ft | 452 kts | 53° |
| 2026-04-23 11:43 | 6.53371 | 78.93838 | 28346 ft | 443 kts | 53° |
| 2026-04-23 11:43 | 6.55301 | 78.96245 | 27767 ft | 441 kts | 53° |
| 2026-04-23 11:44 | 6.57220 | 78.98638 | 27227 ft | 438 kts | 52° |
| 2026-04-23 11:44 | 6.59120 | 79.01007 | 26727 ft | 434 kts | 52° |
| 2026-04-23 11:44 | 6.61006 | 79.03359 | 26237 ft | 430 kts | 52° |
| 2026-04-23 11:44 | 6.62869 | 79.05694 | 25754 ft | 426 kts | 52° |
| 2026-04-23 11:45 | 6.64700 | 79.08020 | 25279 ft | 422 kts | 52° |
| 2026-04-23 11:45 | 6.66511 | 79.10330 | 24801 ft | 419 kts | 52° |
| 2026-04-23 11:45 | 6.68306 | 79.12620 | 24332 ft | 415 kts | 52° |
| 2026-04-23 11:45 | 6.70087 | 79.14891 | 23855 ft | 412 kts | 52° |
| 2026-04-23 11:46 | 6.71856 | 79.17148 | 23421 ft | 408 kts | 51° |
| 2026-04-23 11:46 | 6.73603 | 79.19376 | 22908 ft | 404 kts | 51° |
| 2026-04-23 11:46 | 6.75336 | 79.21586 | 22383 ft | 400 kts | 51° |
| 2026-04-23 11:46 | 6.77048 | 79.23770 | 21868 ft | 396 kts | 51° |
| 2026-04-23 11:47 | 6.78747 | 79.25936 | 21368 ft | 392 kts | 51° |
| 2026-04-23 11:47 | 6.80428 | 79.28079 | 20865 ft | 388 kts | 51° |
| 2026-04-23 11:47 | 6.82091 | 79.30200 | 20366 ft | 384 kts | 51° |
| 2026-04-23 11:47 | 6.83737 | 79.32299 | 19884 ft | 380 kts | 51° |
| 2026-04-23 11:48 | 6.85367 | 79.34377 | 19404 ft | 376 kts | 51° |
| 2026-04-23 11:48 | 6.86980 | 79.36435 | 18926 ft | 373 kts | 51° |
| 2026-04-23 11:48 | 6.88579 | 79.38476 | 18456 ft | 369 kts | 51° |
| 2026-04-23 11:48 | 6.90163 | 79.40498 | 17960 ft | 366 kts | 51° |
| 2026-04-23 11:49 | 6.91734 | 79.42505 | 17397 ft | 364 kts | 51° |
| 2026-04-23 11:49 | 6.93324 | 79.44472 | 16853 ft | 361 kts | 46° |
| 2026-04-23 11:49 | 6.95166 | 79.46165 | 16329 ft | 357 kts | 39° |
| 2026-04-23 11:49 | 6.97102 | 79.47721 | 15811 ft | 354 kts | 38° |
| 2026-04-23 11:50 | 6.99036 | 79.49240 | 15299 ft | 351 kts | 38° |
| 2026-04-23 11:50 | 7.00955 | 79.50746 | 14798 ft | 349 kts | 38° |
| 2026-04-23 11:50 | 7.02860 | 79.52245 | 14304 ft | 346 kts | 38° |
| 2026-04-23 11:50 | 7.04744 | 79.53732 | 13819 ft | 343 kts | 38° |
| 2026-04-23 11:51 | 7.06616 | 79.55210 | 13296 ft | 341 kts | 38° |
| 2026-04-23 11:51 | 7.08469 | 79.56674 | 12757 ft | 338 kts | 38° |
| 2026-04-23 11:51 | 7.10286 | 79.58109 | 12239 ft | 335 kts | 38° |
| 2026-04-23 11:51 | 7.12112 | 79.59553 | 11718 ft | 332 kts | 38° |
| 2026-04-23 11:52 | 7.13920 | 79.60983 | 11204 ft | 329 kts | 38° |
| 2026-04-23 11:52 | 7.15718 | 79.62405 | 10776 ft | 324 kts | 38° |
| 2026-04-23 11:52 | 7.17456 | 79.63781 | 10574 ft | 312 kts | 38° |
| 2026-04-23 11:52 | 7.19130 | 79.65107 | 10386 ft | 300 kts | 38° |
| 2026-04-23 11:53 | 7.20754 | 79.66393 | 10059 ft | 295 kts | 38° |
| 2026-04-23 11:53 | 7.22365 | 79.67669 | 9620 ft | 294 kts | 38° |
| 2026-04-23 11:53 | 7.23973 | 79.68943 | 9141 ft | 293 kts | 38° |
| 2026-04-23 11:53 | 7.25569 | 79.70209 | 8675 ft | 291 kts | 38° |
| 2026-04-23 11:54 | 7.27155 | 79.71469 | 8229 ft | 289 kts | 38° |
| 2026-04-23 11:54 | 7.28728 | 79.72720 | 7788 ft | 287 kts | 38° |
| 2026-04-23 11:54 | 7.30291 | 79.73962 | 7341 ft | 286 kts | 38° |
| 2026-04-23 11:54 | 7.31861 | 79.75205 | 6854 ft | 286 kts | 38° |
| 2026-04-23 11:55 | 7.33397 | 79.76417 | 6662 ft | 275 kts | 38° |
| 2026-04-23 11:55 | 7.34880 | 79.77588 | 6370 ft | 268 kts | 38° |
| 2026-04-23 11:55 | 7.36345 | 79.78747 | 5954 ft | 267 kts | 38° |
| 2026-04-23 11:55 | 7.37805 | 79.79900 | 5556 ft | 266 kts | 38° |
| 2026-04-23 11:56 | 7.39227 | 79.81093 | 5110 ft | 266 kts | 46° |
| 2026-04-23 11:56 | 7.40208 | 79.82653 | 4648 ft | 266 kts | 73° |
| 2026-04-23 11:56 | 7.40287 | 79.84495 | 4092 ft | 269 kts | 104° |
| 2026-04-23 11:56 | 7.39471 | 79.86194 | 3552 ft | 272 kts | 123° |
| 2026-04-23 11:57 | 7.38388 | 79.87742 | 3136 ft | 267 kts | 127° |
| 2026-04-23 11:57 | 7.37310 | 79.89213 | 2802 ft | 254 kts | 127° |
| 2026-04-23 11:57 | 7.36270 | 79.90600 | 2543 ft | 243 kts | 132° |
| 2026-04-23 11:57 | 7.34994 | 79.91695 | 2162 ft | 242 kts | 151° |
| 2026-04-23 11:58 | 7.33504 | 79.92487 | 1727 ft | 242 kts | 156° |
| 2026-04-23 11:58 | 7.32011 | 79.93201 | 1525 ft | 232 kts | 157° |
| 2026-04-23 11:58 | 7.30617 | 79.93866 | 1501 ft | 210 kts | 156° |
| 2026-04-23 11:58 | 7.29368 | 79.94463 | 1489 ft | 190 kts | 157° |
| 2026-04-23 11:59 | 7.28165 | 79.94982 | 1499 ft | 187 kts | 165° |
| 2026-04-23 11:59 | 7.26902 | 79.94997 | 1492 ft | 183 kts | 198° |
| 2026-04-23 11:59 | 7.25847 | 79.94377 | 1482 ft | 172 kts | 219° |
| 2026-04-23 11:59 | 7.24995 | 79.93655 | 1367 ft | 148 kts | 218° |
| 2026-04-23 12:00 | 7.24215 | 79.93065 | 1190 ft | 133 kts | 217° |
| 2026-04-23 12:00 | 7.23505 | 79.92519 | 1024 ft | 128 kts | 217° |
| 2026-04-23 12:00 | 7.22795 | 79.91972 | 869 ft | 130 kts | 219° |
| 2026-04-23 12:00 | 7.22074 | 79.91417 | 721 ft | 131 kts | 220° |
| 2026-04-23 12:01 | 7.21356 | 79.90864 | 569 ft | 129 kts | 219° |
| 2026-04-23 12:01 | 7.20643 | 79.90315 | 389 ft | 129 kts | 220° |
| 2026-04-23 12:01 | 7.19931 | 79.89760 | 214 ft | 129 kts | 219° |
| 2026-04-23 12:01 | 7.19230 | 79.89219 | 55 ft | 126 kts | 211° |
| 2026-04-23 12:02 | 7.18572 | 79.88724 | 31 ft | 101 kts | 219° |
| 2026-04-23 12:02 | 7.18230 | 79.88464 | 30 ft | 32 kts | 216° |
| 2026-04-23 12:02 | 7.18058 | 79.88332 | 32 ft | 31 kts | 216° |
| 2026-04-23 12:02 | 7.17911 | 79.88222 | 32 ft | 18 kts | 204° |
| 2026-04-23 12:03 | 7.17832 | 79.88265 | 32 ft | 10 kts | 127° |
| 2026-04-23 12:03 | 7.17829 | 79.88269 | 32 ft | 0 kts | 127° |
| 2026-04-23 12:03 | 7.17828 | 79.88270 | 32 ft | 2 kts | 127° |
| 2026-04-23 12:04 | 7.17800 | 79.88307 | 31 ft | 11 kts | 126° |
| 2026-04-23 12:04 | 7.17833 | 79.88386 | 31 ft | 17 kts | 38° |
| 2026-04-23 12:04 | 7.17823 | 79.88482 | 30 ft | 15 kts | 126° |
| 2026-04-23 12:04 | 7.17759 | 79.88568 | 30 ft | 15 kts | 124° |
| 2026-04-23 12:05 | 7.17747 | 79.88584 | 30 ft | 3 kts | 128° |
| 2026-04-23 12:05 | 7.17720 | 79.88619 | 30 ft | 9 kts | 130° |
| 2026-04-23 12:05 | 7.17668 | 79.88607 | 30 ft | 11 kts | 214° |
| 2026-04-23 12:05 | 7.17626 | 79.88576 | 30 ft | 4 kts | 216° |
| 2026-04-23 12:06 | 7.17621 | 79.88573 | 30 ft | 0 kts | 217° |
| 2026-04-23 12:06 | 4.18872 | 73.52795 | -29 ft | 0 kts | 269° |